Terminal Aerodrome Forecast
Issued by NWS Pittsburgh, PA

Current Version | Previous Version | Graphics & Text | Print | Product List | Glossary On
Versions: 1 2 3 4 5 6 7 8 9 10 11 12 13 14 15 16 17 18 19 20 21 22 23 24 25 26 27 28 29 30 31 32
332
FTUS41 KPBZ 260802 AAA
TAFPIT
TAF AMD
KPIT 260802Z 2608/2712 27011KT P6SM FEW009 SCT030 OVC060
     FM261500 27009KT P6SM OVC010
     FM261700 27010KT P6SM BKN020
     FM262000 28010KT P6SM BKN030
     FM270700 13003KT P6SM SCT110=

USA.gov is the U.S. government's official web portal to all federal, state and local government web resources and services.